KSRB  Upper Cumberland Regional Airport

Add Bookmark

Sparta, Tennessee, United States

Status Useage
Operational Public
Latitude Longitude
36° 3' 24" N 85° 31' 48" W
36.056739 -85.530108
Local (DST -5) UTC (GMT -6)
Aug 27, 2014 05:59 Aug 27, 2014 22:59
Sunrise-Sunset Local UTC
Begin Civil Twilight 05:42 10:42
Sunrise 06:09 11:09
Sunset 07:17 00:17
End Civil Twilight 07:43 00:43

Current Weather

METAR Observed VFR
KSRB 272235Z AUTO 00000KT 10SM FEW050 31/21 A3005 Wed, Aug 27, 2014 @ 22:35 UTC
(24 Minutes ago)
Visual Flight Rules
Wind Visibility Clouds Conditions
Calm 10 statute miles
  • Few at 5,000' AGL
  • No significant weather
Temperatures Readings Precipitation
Current Temp 31°C (88°F)
Dewpoint 21°C (70°F)
Heat Index 34°C (93°F)
Humidity 55%
Altimeter 30.05"Hg
Sea Level Pressure 1018mb
None Recorded

Additional weather within a 50nm radius of KSRB

Map ICAO Location
KCSV 22.5nm E (106°)
KRNC 26.3nm S (215°)
KMQY 48.1nm W (267°)

24 Hour Weather History

Loading
-

24 Hour Weather Graphs

Loading
-

CheckWX.com is intended as a tool to help pilots better visualize weather data. It is not intended as a substitute for an official weather briefing obtained from a Flight Service Station. CheckWX.com does not meet the FAA requirements for an official pre-flight weather briefing. Therefore, it's important that pilots still call and obtain an official FSS pre-flight weather briefing.